Time;durP1;ratioP1;P1;durP2;ratioP2;P2;SDS_P1;SDS_P2;PMS_P1;PMS_P2;Temp;Humidity;BMP_temperature;BMP_pressure;BME280_temperature;BME280_humidity;BME280_pressure;Samples;Min_cycle;Max_cycle;Signal;HPM_P1;HPM_P2
2019/05/11 00:02:11;;;;;;;1.8;1.5;;;;;;;11.1;73.95703;934.6042;;;;
2019/05/11 00:04:36;;;;;;;3.2;1.7;;;;;;;11.07;74.19238;934.6114;;;;
2019/05/11 00:07:01;;;;;;;2.5;1.8;;;;;;;11.11;74.50781;934.5995;;;;
2019/05/11 00:09:26;;;;;;;3.7;1.6;;;;;;;11.06;74.55566;934.6217;;;;
2019/05/11 00:11:51;;;;;;;2.5;1.3;;;;;;;10.95;74.61816;934.4874;;;;
2019/05/11 00:14:20;;;;;;;2.8;1.2;;;;;;;10.76;75.60059;934.5703;;;;
2019/05/11 00:16:41;;;;;;;3;1.2;;;;;;;10.6;76.28027;934.4127;;;;
2019/05/11 00:19:09;;;;;;;2.2;1.3;;;;;;;10.63;76.41211;934.4307;;;;
2019/05/11 00:21:34;;;;;;;3.2;1.4;;;;;;;10.66;76.77148;934.3854;;;;
2019/05/11 00:23:59;;;;;;;2.5;1.1;;;;;;;10.68;76.42188;934.3878;;;;
2019/05/11 00:26:25;;;;;;;2.5;1.3;;;;;;;10.67;77.27539;934.2914;;;;
2019/05/11 00:28:50;;;;;;;5.1;1.3;;;;;;;10.69;76.67285;934.2978;;;;
2019/05/11 00:31:15;;;;;;;2.8;1.2;;;;;;;10.66;76.06348;934.258;;;;
2019/05/11 00:33:42;;;;;;;6.1;1.4;;;;;;;10.52;76.81445;934.2214;;;;
2019/05/11 00:36:10;;;;;;;3.6;1.4;;;;;;;10.58;76.76855;934.2407;;;;
2019/05/11 00:38:32;;;;;;;3.9;1.3;;;;;;;10.69;76.2959;934.2166;;;;
2019/05/11 00:40:57;;;;;;;2.6;1.3;;;;;;;10.78;76.05078;934.1945;;;;
2019/05/11 00:43:22;;;;;;;2.8;1.2;;;;;;;10.93;75.34473;934.1584;;;;
2019/05/11 00:45:47;;;;;;;2.1;1.3;;;;;;;10.75;76.19141;934.2112;;;;
2019/05/11 00:48:13;;;;;;;2.5;1.2;;;;;;;10.69;76.41016;934.098;;;;
2019/05/11 00:50:38;;;;;;;2;1.1;;;;;;;10.42;77.43555;934.0278;;;;
2019/05/11 00:53:03;;;;;;;2.9;1.1;;;;;;;10.61;77.18555;934.0549;;;;
2019/05/11 00:55:28;;;;;;;3;1.2;;;;;;;10.79;76.69043;934.0114;;;;
2019/05/11 00:57:53;;;;;;;3.6;1.4;;;;;;;10.82;75.94336;933.9742;;;;
2019/05/11 01:00:18;;;;;;;2.5;1.2;;;;;;;10.93;75.39063;934.0564;;;;
2019/05/11 01:02:43;;;;;;;3.7;1.2;;;;;;;11.02;74.82324;934.048;;;;
2019/05/11 01:05:09;;;;;;;3.8;1.1;;;;;;;11;74.7959;934.0963;;;;
2019/05/11 01:07:35;;;;;;;3.8;1.1;;;;;;;10.9;75.20215;934.0898;;;;
2019/05/11 01:10:00;;;;;;;3.4;1.2;;;;;;;10.78;75.77734;933.9779;;;;
2019/05/11 01:12:26;;;;;;;1.8;0.9;;;;;;;10.76;75.26953;933.9548;;;;
2019/05/11 01:14:51;;;;;;;1.6;0.9;;;;;;;10.95;74.82227;933.9952;;;;
2019/05/11 01:17:18;;;;;;;1.6;0.9;;;;;;;11.05;73.87793;933.9429;;;;
2019/05/11 01:19:44;;;;;;;2.4;1.1;;;;;;;11.06;73.90527;933.9668;;;;
2019/05/11 01:22:09;;;;;;;1.7;1;;;;;;;11.05;74.51758;933.9174;;;;
2019/05/11 01:24:34;;;;;;;1.9;1;;;;;;;10.84;75.44336;933.9551;;;;
2019/05/11 01:26:59;;;;;;;2.2;1.1;;;;;;;10.74;75.87207;933.8513;;;;
2019/05/11 01:29:24;;;;;;;2.4;1;;;;;;;10.68;76.27344;933.7891;;;;
2019/05/11 01:31:49;;;;;;;2.8;1.2;;;;;;;10.29;77.8125;933.7645;;;;
2019/05/11 01:34:14;;;;;;;1.9;1;;;;;;;10.58;76.97559;933.7097;;;;
2019/05/11 01:36:39;;;;;;;3.7;1.2;;;;;;;10.64;76.74316;933.7341;;;;
2019/05/11 01:39:05;;;;;;;2.2;1;;;;;;;10.54;77.11426;933.6292;;;;
2019/05/11 01:41:30;;;;;;;2.1;1;;;;;;;10.55;76.85449;933.5942;;;;
2019/05/11 01:43:55;;;;;;;3.5;1.2;;;;;;;10.57;76.96094;933.6006;;;;
2019/05/11 01:46:20;;;;;;;1.8;0.9;;;;;;;10.4;77.63965;933.5706;;;;
2019/05/11 01:48:45;;;;;;;1.7;1.1;;;;;;;10.47;77.48145;933.5552;;;;
2019/05/11 01:51:10;;;;;;;2.6;1.2;;;;;;;10.51;77.28027;933.5258;;;;
2019/05/11 01:53:38;;;;;;;2.3;1.1;;;;;;;10.48;77.37891;933.5376;;;;
2019/05/11 01:56:00;;;;;;;3.4;1.1;;;;;;;10.3;78.17969;933.556;;;;
2019/05/11 01:58:26;;;;;;;4.2;2.3;;;;;;;10.22;78.84863;933.5851;;;;
2019/05/11 02:00:52;;;;;;;5.5;1.9;;;;;;;10.44;78.12402;933.5375;;;;
2019/05/11 02:03:17;;;;;;;3.5;1.6;;;;;;;10.33;78.38965;933.502;;;;
2019/05/11 02:05:42;;;;;;;3.6;1.6;;;;;;;10.46;77.8877;933.5145;;;;
2019/05/11 02:08:09;;;;;;;2.5;1.7;;;;;;;10.21;78.66504;933.5602;;;;
2019/05/11 02:10:34;;;;;;;2.1;1.4;;;;;;;9.97;79.71484;933.5206;;;;
2019/05/11 02:13:00;;;;;;;2.4;1.4;;;;;;;10.11;79.02344;933.4641;;;;
2019/05/11 02:15:26;;;;;;;4.3;1.6;;;;;;;10.16;78.97559;933.4842;;;;
2019/05/11 02:17:51;;;;;;;3.2;1.4;;;;;;;10.04;79.13574;933.4711;;;;
2019/05/11 02:20:16;;;;;;;3;1.3;;;;;;;10.07;79.05078;933.4512;;;;
2019/05/11 02:22:41;;;;;;;1.9;1.2;;;;;;;10.13;78.77539;933.4109;;;;
2019/05/11 02:25:07;;;;;;;3.2;1.3;;;;;;;10.12;78.91211;933.4498;;;;
2019/05/11 02:27:32;;;;;;;2.5;1.1;;;;;;;10.23;77.94922;933.4269;;;;
2019/05/11 02:29:57;;;;;;;2.4;0.8;;;;;;;10.09;78.37012;933.4108;;;;
2019/05/11 02:32:25;;;;;;;1.8;0.9;;;;;;;10.2;77.8877;933.4255;;;;
2019/05/11 02:34:48;;;;;;;4.5;1;;;;;;;10.16;77.52539;933.3744;;;;
2019/05/11 02:37:13;;;;;;;2.4;0.8;;;;;;;10.31;76.71973;933.3507;;;;
2019/05/11 02:39:38;;;;;;;1.3;0.9;;;;;;;10.36;77.00195;933.397;;;;
2019/05/11 02:42:03;;;;;;;2.3;0.9;;;;;;;10.29;77.56152;933.3022;;;;
2019/05/11 02:44:29;;;;;;;1.3;0.9;;;;;;;10.43;76.99414;933.313;;;;
2019/05/11 02:46:54;;;;;;;2.4;0.9;;;;;;;10.4;77.2168;933.3159;;;;
2019/05/11 02:49:19;;;;;;;2.1;0.9;;;;;;;10.27;77.54785;933.2654;;;;
2019/05/11 02:51:44;;;;;;;3;1.1;;;;;;;9.99;78.39746;933.1278;;;;
2019/05/11 02:54:09;;;;;;;2;1.2;;;;;;;9.84;79.51074;933.1091;;;;
2019/05/11 02:56:34;;;;;;;4.1;1.2;;;;;;;9.96;79.08594;933.1611;;;;
2019/05/11 02:58:59;;;;;;;2.9;1.2;;;;;;;10.06;78.35352;933.1252;;;;
2019/05/11 03:01:24;;;;;;;2.7;1;;;;;;;10.21;78.15137;933.1234;;;;
2019/05/11 03:03:50;;;;;;;2.5;1.1;;;;;;;10.2;77.8877;933.1111;;;;
2019/05/11 03:06:15;;;;;;;1.9;0.9;;;;;;;9.94;78.26172;933.0402;;;;
2019/05/11 03:08:40;;;;;;;4.3;1.1;;;;;;;10;77.53223;932.9442;;;;
2019/05/11 03:11:05;;;;;;;1.6;0.8;;;;;;;10.08;76.18848;932.9288;;;;
2019/05/11 03:13:31;;;;;;;2.2;0.9;;;;;;;10.22;75.93945;932.9447;;;;
2019/05/11 03:15:56;;;;;;;1.5;1;;;;;;;10.39;75.39746;932.9952;;;;
2019/05/11 03:18:21;;;;;;;2.7;0.9;;;;;;;10.36;75.5752;932.9895;;;;
2019/05/11 03:20:46;;;;;;;1.4;0.7;;;;;;;10.42;73.83984;932.8817;;;;
2019/05/11 03:23:11;;;;;;;1.4;0.8;;;;;;;10.64;73.06641;932.8972;;;;
2019/05/11 03:25:37;;;;;;;1.9;1;;;;;;;10.69;74.08008;932.8033;;;;
2019/05/11 03:28:02;;;;;;;2;0.9;;;;;;;10.63;74.11719;932.75;;;;
2019/05/11 03:30:29;;;;;;;1.9;1;;;;;;;10.78;73.77734;932.738;;;;
2019/05/11 03:32:54;;;;;;;2.1;1;;;;;;;10.87;73.26563;932.6951;;;;
2019/05/11 03:35:20;;;;;;;3;1.1;;;;;;;10.69;74.38867;932.6505;;;;
2019/05/11 03:37:45;;;;;;;2.7;1;;;;;;;10.51;74.75879;932.5363;;;;
2019/05/11 03:40:10;;;;;;;2.1;1.2;;;;;;;10.6;74.84277;932.3699;;;;
2019/05/11 03:42:36;;;;;;;2.2;1.2;;;;;;;10.64;74.39063;932.3837;;;;
2019/05/11 03:45:01;;;;;;;1.9;0.9;;;;;;;10.45;73.77637;932.3524;;;;
2019/05/11 03:47:28;;;;;;;3.8;1.1;;;;;;;10.64;73.90039;932.3495;;;;
2019/05/11 03:49:53;;;;;;;1.3;1;;;;;;;10.72;73.35449;932.3837;;;;
2019/05/11 03:52:18;;;;;;;2;0.9;;;;;;;10.68;73.93164;932.426;;;;
2019/05/11 03:54:43;;;;;;;1.5;0.9;;;;;;;10.71;73.53711;932.3845;;;;
2019/05/11 03:57:08;;;;;;;1.9;1;;;;;;;10.72;72.27051;932.4553;;;;
2019/05/11 03:59:33;;;;;;;1.8;0.9;;;;;;;10.91;72.05078;932.504;;;;
2019/05/11 04:02:40;;;;;;;2.8;1.3;;;;;;;11.08;72.4209;932.4777;;;;
2019/05/11 04:05:05;;;;;;;9.1;1.5;;;;;;;11.03;72.23145;932.4061;;;;
2019/05/11 04:07:32;;;;;;;2.8;1.2;;;;;;;10.86;73.51563;932.395;;;;
2019/05/11 04:09:58;;;;;;;2.5;1.1;;;;;;;10.96;73.39551;932.2522;;;;
2019/05/11 04:12:24;;;;;;;6.5;1.4;;;;;;;10.95;73.83984;932.2363;;;;
2019/05/11 04:14:49;;;;;;;4.6;1.2;;;;;;;10.88;73.68066;932.2181;;;;
2019/05/11 04:17:17;;;;;;;3.5;1.2;;;;;;;10.86;73.83691;932.2158;;;;
2019/05/11 04:19:42;;;;;;;1.8;1.1;;;;;;;10.86;73.82617;932.2029;;;;
2019/05/11 04:22:10;;;;;;;1.7;1.2;;;;;;;10.68;74.60547;932.2094;;;;
2019/05/11 04:24:35;;;;;;;3.4;1.9;;;;;;;10.61;75.13965;932.2377;;;;
2019/05/11 04:27:00;;;;;;;3.8;1.8;;;;;;;10.38;75.83105;932.181;;;;
2019/05/11 04:29:25;;;;;;;2.9;1.7;;;;;;;10.36;76.3291;932.1492;;;;
2019/05/11 04:31:50;;;;;;;4.3;1.6;;;;;;;10.48;75.83691;932.1454;;;;
2019/05/11 04:34:15;;;;;;;4;1.5;;;;;;;10.79;74.73926;932.1335;;;;
2019/05/11 04:36:43;;;;;;;4.7;1.7;;;;;;;11.02;75.21191;932.1998;;;;
2019/05/11 04:39:08;;;;;;;5.3;1.7;;;;;;;11.24;73.83203;932.1931;;;;
2019/05/11 04:41:35;;;;;;;7.3;1.6;;;;;;;11.43;72.83398;932.1003;;;;
2019/05/11 04:44:00;;;;;;;4.4;1.5;;;;;;;11.44;72.23145;932.0612;;;;
2019/05/11 04:46:25;;;;;;;3;1.5;;;;;;;11.47;72.50977;932.1216;;;;
2019/05/11 04:48:52;;;;;;;1.9;1.1;;;;;;;11.46;72.41699;932.1567;;;;
2019/05/11 04:51:17;;;;;;;4.5;1.4;;;;;;;11.3;72.5957;932.1905;;;;
2019/05/11 04:53:43;;;;;;;2.9;1.2;;;;;;;11.26;73.52734;932.1819;;;;
2019/05/11 04:56:08;;;;;;;4.7;1.4;;;;;;;11.36;74.02539;932.1672;;;;
2019/05/11 04:58:34;;;;;;;2.6;1.5;;;;;;;11.6;72.875;932.2391;;;;
2019/05/11 05:01:00;;;;;;;4;1.6;;;;;;;11.83;71.78027;932.321;;;;
2019/05/11 05:03:25;;;;;;;3.9;2;;;;;;;11.84;70.96875;932.2947;;;;
2019/05/11 05:05:50;;;;;;;8.8;2.1;;;;;;;11.85;71.48535;932.3106;;;;
2019/05/11 05:08:16;;;;;;;3.6;1.4;;;;;;;11.74;71.51367;932.2539;;;;
2019/05/11 05:10:41;;;;;;;2.8;1.4;;;;;;;11.68;71.93848;932.2271;;;;
2019/05/11 05:13:06;;;;;;;3.1;1.2;;;;;;;11.78;71.91992;932.0966;;;;
2019/05/11 05:15:31;;;;;;;3.4;1.5;;;;;;;11.77;72.67285;932.1238;;;;
2019/05/11 05:17:56;;;;;;;3.8;1.7;;;;;;;11.84;71.95215;932.1463;;;;
2019/05/11 05:20:21;;;;;;;3.7;1.9;;;;;;;11.96;72.00781;932.1328;;;;
2019/05/11 05:22:46;;;;;;;4.6;1.8;;;;;;;12.04;71.98633;932.1494;;;;
2019/05/11 05:25:11;;;;;;;3.9;2;;;;;;;12.13;71.16309;932.1018;;;;
2019/05/11 05:27:37;;;;;;;4.3;2.1;;;;;;;12.29;70.7334;932.0411;;;;
2019/05/11 05:30:02;;;;;;;9.4;2.4;;;;;;;12.32;69.56836;932.0416;;;;
2019/05/11 05:32:27;;;;;;;4.5;2.2;;;;;;;12.28;69.53906;932.0634;;;;
2019/05/11 05:34:52;;;;;;;4.3;2.3;;;;;;;12.36;71.52441;932.1228;;;;
2019/05/11 05:37:17;;;;;;;7.1;2.5;;;;;;;12.65;70.0332;932.1251;;;;
2019/05/11 05:39:42;;;;;;;13.2;3;;;;;;;12.73;69.31348;932.1195;;;;
2019/05/11 05:42:07;;;;;;;7.6;2.3;;;;;;;12.99;68.80078;932.0783;;;;
2019/05/11 05:44:33;;;;;;;6;3.1;;;;;;;13.08;67.9209;932.1016;;;;
2019/05/11 05:46:58;;;;;;;7.8;3.1;;;;;;;13.27;68.22461;932.085;;;;
2019/05/11 05:49:23;;;;;;;6.6;3.2;;;;;;;13.18;67.90234;932.0442;;;;
2019/05/11 05:51:48;;;;;;;9.6;3.9;;;;;;;13.04;69.46387;932.1069;;;;
2019/05/11 05:54:13;;;;;;;6.8;3.4;;;;;;;13.37;68.79395;932.2143;;;;
2019/05/11 05:56:38;;;;;;;7.7;3.2;;;;;;;13.54;66.75098;932.2414;;;;
2019/05/11 05:59:03;;;;;;;6.6;2.6;;;;;;;13.86;66.9834;932.2941;;;;
2019/05/11 06:01:29;;;;;;;4.5;1.7;;;;;;;14.11;66.73438;932.3631;;;;
2019/05/11 06:03:54;;;;;;;2.5;1.1;;;;;;;14.48;63.87598;932.3203;;;;
2019/05/11 06:06:22;;;;;;;2.8;1;;;;;;;14.33;65.59277;932.3114;;;;
2019/05/11 06:08:47;;;;;;;3.8;1.2;;;;;;;14.63;65.14355;932.3791;;;;
2019/05/11 06:11:12;;;;;;;3.9;1.2;;;;;;;15.05;63.03809;932.3535;;;;
2019/05/11 06:13:38;;;;;;;6.1;1.2;;;;;;;15.54;60.0127;932.3323;;;;
2019/05/11 06:16:03;;;;;;;6.2;1;;;;;;;16.32;55.78027;932.2397;;;;
2019/05/11 06:18:28;;;;;;;4.3;1;;;;;;;16.65;54.21289;932.1853;;;;
2019/05/11 06:20:53;;;;;;;1.7;1;;;;;;;16.3;56.63477;932.1012;;;;
2019/05/11 06:23:18;;;;;;;3.8;1;;;;;;;17.06;53.23145;932.095;;;;
2019/05/11 06:25:43;;;;;;;2.2;0.9;;;;;;;16.85;53.27637;932.1641;;;;
2019/05/11 06:28:08;;;;;;;2.1;0.9;;;;;;;16.78;53.9502;932.2678;;;;
2019/05/11 06:30:34;;;;;;;5.8;1;;;;;;;16.17;54.21094;932.3834;;;;
2019/05/11 06:32:59;;;;;;;1.3;0.9;;;;;;;15.91;54.90723;932.394;;;;
2019/05/11 06:35:24;;;;;;;4.8;1;;;;;;;15.65;55.83398;932.4559;;;;
2019/05/11 06:37:49;;;;;;;3.8;1.2;;;;;;;15.4;58.26172;932.4526;;;;
2019/05/11 06:40:15;;;;;;;5.9;1.5;;;;;;;15.67;57.88184;932.4757;;;;
2019/05/11 06:42:40;;;;;;;7.7;1.7;;;;;;;16.17;56.97559;932.5633;;;;
2019/05/11 06:45:06;;;;;;;3.9;1.5;;;;;;;16.24;54.76367;932.631;;;;
2019/05/11 06:47:31;;;;;;;4.4;1.7;;;;;;;16.12;55.08301;932.5611;;;;
2019/05/11 06:49:56;;;;;;;5;1.4;;;;;;;16.36;55.76367;932.6076;;;;
2019/05/11 06:52:21;;;;;;;6.2;1.8;;;;;;;16.82;53.52734;932.5502;;;;
2019/05/11 06:54:47;;;;;;;8.1;1.7;;;;;;;17.12;52.23047;932.5505;;;;
2019/05/11 06:57:14;;;;;;;3.3;1.6;;;;;;;17.21;53.66699;932.4444;;;;
2019/05/11 06:59:39;;;;;;;3.6;1.5;;;;;;;17.33;52.52344;932.4238;;;;
2019/05/11 07:02:04;;;;;;;4.1;1.6;;;;;;;17.63;49.73828;932.394;;;;
2019/05/11 07:04:29;;;;;;;4.4;1.4;;;;;;;18.16;49.17188;932.4138;;;;
2019/05/11 07:06:55;;;;;;;4.5;1.4;;;;;;;18.75;48.86523;932.4422;;;;
2019/05/11 07:09:23;;;;;;;2;1.2;;;;;;;19.36;47.51074;932.48;;;;
2019/05/11 07:11:45;;;;;;;3.5;1.2;;;;;;;19.89;44.79297;932.4657;;;;
2019/05/11 07:14:10;;;;;;;3.1;1.1;;;;;;;20.05;43.54785;932.4444;;;;
2019/05/11 07:16:35;;;;;;;2.7;0.9;;;;;;;20.58;42.06934;932.3867;;;;
2019/05/11 07:19:00;;;;;;;3.2;0.9;;;;;;;20.35;41.55762;932.4139;;;;
2019/05/11 07:21:25;;;;;;;1.3;0.6;;;;;;;20.67;41.6582;932.3517;;;;
2019/05/11 07:23:51;;;;;;;2.2;0.9;;;;;;;20.68;41.80957;932.3856;;;;
2019/05/11 07:26:16;;;;;;;2;0.8;;;;;;;20.95;40.22266;932.4146;;;;
2019/05/11 07:28:41;;;;;;;3.7;0.7;;;;;;;20.83;41.92969;932.4076;;;;
2019/05/11 07:31:06;;;;;;;3.1;0.7;;;;;;;21.68;38.67188;932.387;;;;
2019/05/11 07:33:32;;;;;;;3.5;0.7;;;;;;;21.35;38.7959;932.448;;;;
2019/05/11 07:35:57;;;;;;;2.2;0.9;;;;;;;21.67;40.5918;932.4489;;;;
2019/05/11 07:38:23;;;;;;;2.9;0.7;;;;;;;22.28;38.68848;932.3325;;;;
2019/05/11 07:40:48;;;;;;;2.1;0.8;;;;;;;22.76;38.48438;932.3197;;;;
2019/05/11 07:43:13;;;;;;;2.8;0.8;;;;;;;22.09;38.97656;932.2313;;;;
2019/05/11 07:45:38;;;;;;;2.6;0.8;;;;;;;22.09;39.42285;932.2483;;;;
2019/05/11 07:48:04;;;;;;;3.3;0.8;;;;;;;22.8;37.87695;932.3098;;;;
2019/05/11 07:50:29;;;;;;;1.5;0.7;;;;;;;23.29;38.68262;932.3915;;;;
2019/05/11 07:52:54;;;;;;;2.8;0.8;;;;;;;24.28;35.91797;932.3059;;;;
2019/05/11 07:55:19;;;;;;;2.3;1;;;;;;;25.29;34.85547;932.3133;;;;
2019/05/11 07:57:47;;;;;;;3.7;0.9;;;;;;;25.57;35.46777;932.198;;;;
2019/05/11 08:00:11;;;;;;;1.5;0.8;;;;;;;26.01;34.61426;932.175;;;;
2019/05/11 08:02:39;;;;;;;2.3;0.7;;;;;;;27.42;31.29492;932.2241;;;;
2019/05/11 08:05:02;;;;;;;1.8;0.6;;;;;;;28.36;29.04297;932.2548;;;;
2019/05/11 08:07:27;;;;;;;2.5;0.7;;;;;;;26.17;34.14258;932.1694;;;;
2019/05/11 08:09:54;;;;;;;2.4;0.6;;;;;;;26.69;33.28125;932.2137;;;;
2019/05/11 08:12:17;;;;;;;1.8;0.6;;;;;;;26.43;32.31543;932.1828;;;;
2019/05/11 08:14:42;;;;;;;1.8;0.7;;;;;;;26.2;34.16797;932.2204;;;;
2019/05/11 08:17:07;;;;;;;2.9;0.6;;;;;;;26.09;33.66309;932.1351;;;;
2019/05/11 08:19:33;;;;;;;1.4;0.7;;;;;;;26.19;32.7832;932.1446;;;;
2019/05/11 08:22:01;;;;;;;2;0.6;;;;;;;26.63;32.3291;932.1152;;;;
2019/05/11 08:24:23;;;;;;;1.2;0.6;;;;;;;26.14;33.46582;932.1262;;;;
2019/05/11 08:26:48;;;;;;;1.2;0.7;;;;;;;25.73;33.35254;932.1251;;;;
2019/05/11 08:29:13;;;;;;;1.4;0.6;;;;;;;24.54;35.38574;932.1178;;;;
2019/05/11 08:31:38;;;;;;;2.6;0.7;;;;;;;23.7;36.88379;932.0237;;;;
2019/05/11 08:34:03;;;;;;;1.6;0.7;;;;;;;23.49;38.06543;931.9786;;;;
2019/05/11 08:36:28;;;;;;;1.6;0.6;;;;;;;24.26;37.53027;931.923;;;;
2019/05/11 08:38:54;;;;;;;4.6;0.7;;;;;;;25.07;34.89648;931.8276;;;;
2019/05/11 08:41:19;;;;;;;2.6;0.8;;;;;;;25.75;34.89063;931.9478;;;;
2019/05/11 08:43:46;;;;;;;1.3;0.5;;;;;;;26.92;32.45801;932.0521;;;;
2019/05/11 08:46:12;;;;;;;1.7;0.6;;;;;;;28.09;30.24902;932.0183;;;;
2019/05/11 08:48:37;;;;;;;1.1;0.5;;;;;;;28.23;30.30566;931.9931;;;;
2019/05/11 08:51:02;;;;;;;2.2;0.7;;;;;;;28.55;31.57715;932.0286;;;;
2019/05/11 08:53:27;;;;;;;2.6;0.6;;;;;;;28.62;27.8457;932.0086;;;;
2019/05/11 08:55:52;;;;;;;4.4;0.7;;;;;;;28.74;28.56738;932.0042;;;;
2019/05/11 08:58:17;;;;;;;1.1;0.6;;;;;;;27.7;31.06543;931.9249;;;;
2019/05/11 09:00:42;;;;;;;4.6;0.9;;;;;;;26.62;31.91406;931.8904;;;;
2019/05/11 09:03:07;;;;;;;1.9;0.7;;;;;;;26.46;32.05762;931.8511;;;;
2019/05/11 09:05:35;;;;;;;2.7;0.7;;;;;;;25.14;33.36816;931.8204;;;;
2019/05/11 09:08:00;;;;;;;2.5;0.6;;;;;;;24.74;35.75586;931.8373;;;;
2019/05/11 09:10:27;;;;;;;1.4;0.6;;;;;;;24.17;36.28613;931.707;;;;
2019/05/11 09:12:52;;;;;;;1.9;0.8;;;;;;;22.53;40.41309;931.7922;;;;
2019/05/11 09:15:18;;;;;;;2.1;0.7;;;;;;;23.01;39.25879;931.7877;;;;
2019/05/11 09:17:44;;;;;;;1.9;0.7;;;;;;;22.76;41.50195;931.7793;;;;
2019/05/11 09:20:09;;;;;;;3.9;0.8;;;;;;;21.79;43.05078;931.8303;;;;
2019/05/11 09:22:34;;;;;;;2.1;0.7;;;;;;;21.86;42.33203;931.8541;;;;
2019/05/11 09:25:00;;;;;;;2.1;0.7;;;;;;;21.44;44.05859;931.8566;;;;
2019/05/11 09:27:25;;;;;;;2.9;0.7;;;;;;;21.16;42.03027;931.7719;;;;
2019/05/11 09:29:50;;;;;;;2.2;0.7;;;;;;;21.16;42.58008;931.8586;;;;
2019/05/11 09:32:15;;;;;;;2.5;0.7;;;;;;;19.72;47.69043;931.9164;;;;
2019/05/11 09:34:42;;;;;;;2.5;0.8;;;;;;;19.31;48.39063;931.9309;;;;
2019/05/11 09:37:08;;;;;;;2.4;0.7;;;;;;;19.75;47.9502;931.9042;;;;
2019/05/11 09:39:33;;;;;;;1.6;0.8;;;;;;;20.03;46.47461;931.7999;;;;
2019/05/11 09:41:58;;;;;;;2.9;0.8;;;;;;;19.72;49.32129;931.9086;;;;
2019/05/11 09:44:23;;;;;;;1.5;0.7;;;;;;;19.8;49.16797;931.8589;;;;
2019/05/11 09:46:49;;;;;;;2.3;0.9;;;;;;;19.84;48.72852;931.8359;;;;
2019/05/11 09:49:14;;;;;;;1.4;0.8;;;;;;;19.94;49.07715;931.8177;;;;
2019/05/11 09:51:39;;;;;;;1.4;0.7;;;;;;;20.14;48.23633;931.8363;;;;
2019/05/11 09:54:06;;;;;;;3.8;0.9;;;;;;;20.13;47.6875;931.8503;;;;
2019/05/11 09:56:34;;;;;;;1.4;0.7;;;;;;;19.82;48.82031;931.8467;;;;
2019/05/11 09:58:59;;;;;;;2;0.9;;;;;;;18.98;49.50684;931.8817;;;;
2019/05/11 10:01:25;;;;;;;1.2;0.7;;;;;;;19.3;49.67188;932.0005;;;;
2019/05/11 10:03:50;;;;;;;2.3;0.9;;;;;;;19.34;49.82813;931.9952;;;;
2019/05/11 10:06:15;;;;;;;2.6;0.8;;;;;;;19.5;47.93359;931.9213;;;;
2019/05/11 10:08:40;;;;;;;2.4;0.9;;;;;;;19.6;47.61816;931.861;;;;
2019/05/11 10:11:05;;;;;;;3.3;0.8;;;;;;;19.78;47.74316;931.8572;;;;
2019/05/11 10:13:33;;;;;;;2.1;0.9;;;;;;;19.72;47.81738;931.8698;;;;
2019/05/11 10:15:58;;;;;;;1.8;0.7;;;;;;;19.45;48.36035;931.8463;;;;
2019/05/11 10:18:23;;;;;;;1.4;0.8;;;;;;;19.24;47.55566;931.9108;;;;
2019/05/11 10:20:48;;;;;;;1.9;0.8;;;;;;;18.74;49.50391;931.9787;;;;
2019/05/11 10:23:13;;;;;;;2.1;0.9;;;;;;;18.67;48.50781;932.0139;;;;
2019/05/11 10:25:38;;;;;;;1.4;0.7;;;;;;;18.7;48.56836;931.972;;;;
2019/05/11 10:28:03;;;;;;;3.7;1;;;;;;;18.72;49.25781;932.0593;;;;
2019/05/11 10:30:28;;;;;;;6.2;0.9;;;;;;;17.23;55.89551;931.8455;;;;
2019/05/11 10:32:54;;;;;;;1.2;0.8;;;;;;;15.91;61.75;932.0433;;;;
2019/05/11 10:35:19;;;;;;;1.6;0.8;;;;;;;16.06;62.85938;932.0073;;;;
2019/05/11 10:37:44;;;;;;;2.8;0.9;;;;;;;16.08;61.9707;932.0865;;;;
2019/05/11 10:40:12;;;;;;;3.2;1;;;;;;;15.76;64.09863;932.0316;;;;
2019/05/11 10:42:35;;;;;;;2.2;1;;;;;;;15.42;65.87305;932.1894;;;;
2019/05/11 10:45:00;;;;;;;2.9;1.1;;;;;;;15;68.89063;932.2097;;;;
2019/05/11 10:47:25;;;;;;;3.4;1;;;;;;;14.95;69.05469;932.1689;;;;
2019/05/11 10:49:50;;;;;;;2.1;0.8;;;;;;;14.53;68.80371;932.1945;;;;
2019/05/11 10:52:15;;;;;;;5.2;1;;;;;;;14.92;69.87988;932.1519;;;;
2019/05/11 10:54:40;;;;;;;1.7;1;;;;;;;15.15;69.10938;932.1666;;;;
2019/05/11 10:57:06;;;;;;;2.5;0.9;;;;;;;15.43;69.06152;932.1154;;;;
2019/05/11 10:59:31;;;;;;;2.2;0.7;;;;;;;15.06;69.91602;932.2281;;;;
2019/05/11 11:01:56;;;;;;;2.8;0.9;;;;;;;14.97;70.60352;932.2054;;;;
2019/05/11 11:04:21;;;;;;;2.1;0.9;;;;;;;15.12;69.60156;932.2385;;;;
2019/05/11 11:06:46;;;;;;;2.5;0.8;;;;;;;15.07;69.4082;932.1462;;;;
2019/05/11 11:09:11;;;;;;;2.4;0.9;;;;;;;14.88;68.7793;932.0963;;;;
2019/05/11 11:11:37;;;;;;;4.4;0.6;;;;;;;14.53;70.68164;932.1817;;;;
2019/05/11 11:14:01;;;;;;;1.2;0.7;;;;;;;14.48;69.41797;932.1577;;;;
2019/05/11 11:16:27;;;;;;;1.4;0.7;;;;;;;14.3;71.01367;932.1741;;;;
2019/05/11 11:18:52;;;;;;;2.2;0.6;;;;;;;13.9;72.52539;932.135;;;;
2019/05/11 11:21:17;;;;;;;1.5;0.7;;;;;;;13.68;73.64941;932.1616;;;;
2019/05/11 11:23:43;;;;;;;2.5;0.7;;;;;;;13.66;73.47559;932.1674;;;;
2019/05/11 11:26:09;;;;;;;0.8;0.6;;;;;;;13.39;74.14063;932.246;;;;
2019/05/11 11:28:33;;;;;;;1.8;0.7;;;;;;;13.35;73.7666;932.2672;;;;
2019/05/11 11:31:01;;;;;;;1.4;0.7;;;;;;;13.44;73.13867;932.2961;;;;
2019/05/11 11:33:28;;;;;;;2;0.9;;;;;;;13.41;74.29492;932.3801;;;;
2019/05/11 11:35:54;;;;;;;5;0.8;;;;;;;13.48;74.43359;932.3972;;;;
2019/05/11 11:38:16;;;;;;;1.1;0.7;;;;;;;13.68;73.32715;932.4689;;;;
2019/05/11 11:40:41;;;;;;;1.7;0.7;;;;;;;13.68;72.16602;932.5712;;;;
2019/05/11 11:43:07;;;;;;;3.4;0.7;;;;;;;13.71;73.4834;932.682;;;;
2019/05/11 11:45:34;;;;;;;2;1;;;;;;;13.69;74.18164;932.7023;;;;
2019/05/11 11:47:59;;;;;;;2.8;1.2;;;;;;;14;73.47363;932.7764;;;;
2019/05/11 11:50:30;;;;;;;5.4;1.2;;;;;;;13.92;74.61133;932.7143;;;;
2019/05/11 11:52:55;;;;;;;3.7;1.2;;;;;;;13.77;75.7002;932.7142;;;;
2019/05/11 11:55:25;;;;;;;9.5;1.6;;;;;;;13.96;75.86035;932.7562;;;;
2019/05/11 11:57:50;;;;;;;4.1;0.9;;;;;;;13.84;72.19434;932.7913;;;;
2019/05/11 12:00:16;;;;;;;5.3;1;;;;;;;13.63;74.43652;932.9518;;;;
2019/05/11 12:02:41;;;;;;;2.6;1;;;;;;;13.39;74.94531;933.0433;;;;
2019/05/11 12:05:06;;;;;;;4.9;3;;;;;;;13.36;77.2041;933.0173;;;;
2019/05/11 12:07:37;;;;;;;2.8;1.1;;;;;;;13.31;76.21973;933.18;;;;
2019/05/11 12:10:11;;;;;;;4.4;1;;;;;;;13.31;75.47168;933.2912;;;;
2019/05/11 12:12:36;;;;;;;4.9;2.3;;;;;;;13.26;78.27832;933.318;;;;
2019/05/11 12:15:01;;;;;;;2.9;1.1;;;;;;;13.04;78.97266;933.4368;;;;
2019/05/11 12:17:26;;;;;;;1.9;0.8;;;;;;;12.83;79.2334;933.4508;;;;
2019/05/11 12:19:51;;;;;;;2;1;;;;;;;12.67;80.60352;933.546;;;;
2019/05/11 12:22:16;;;;;;;2.3;0.9;;;;;;;12.95;77.31641;933.4971;;;;
2019/05/11 12:24:41;;;;;;;4;1.1;;;;;;;12.93;77.50781;933.6099;;;;
2019/05/11 12:27:07;;;;;;;3.6;1;;;;;;;12.97;78.21484;933.7463;;;;
2019/05/11 12:29:35;;;;;;;2.9;0.9;;;;;;;12.67;77.12695;933.7632;;;;
2019/05/11 12:32:05;;;;;;;3.8;1.4;;;;;;;13;79.00195;933.8068;;;;
2019/05/11 12:34:25;;;;;;;4.6;1.4;;;;;;;13.13;77.78516;933.8692;;;;
2019/05/11 12:36:53;;;;;;;4.1;1;;;;;;;13.33;75.31543;933.882;;;;
2019/05/11 12:39:18;;;;;;;1.7;0.9;;;;;;;13.26;75.71582;933.932;;;;
2019/05/11 12:41:44;;;;;;;2.4;1.3;;;;;;;13.27;76.16602;933.9991;;;;
2019/05/11 12:44:09;;;;;;;3.8;1.6;;;;;;;13.25;76.79492;934.0402;;;;
2019/05/11 12:46:34;;;;;;;4.7;2.1;;;;;;;12.87;79.45996;934.1025;;;;
2019/05/11 12:48:59;;;;;;;3.9;1.9;;;;;;;12.92;80.06641;934.1262;;;;
2019/05/11 12:51:28;;;;;;;2.7;1.4;;;;;;;12.99;78.73438;934.1066;;;;
2019/05/11 12:54:07;;;;;;;4.1;1.8;;;;;;;12.98;78.93945;934.197;;;;
2019/05/11 12:56:32;;;;;;;2.3;1.4;;;;;;;12.91;78.59375;934.1623;;;;
2019/05/11 12:58:57;;;;;;;3.9;1.2;;;;;;;12.96;78.07422;934.2123;;;;
2019/05/11 13:01:22;;;;;;;4.1;1.5;;;;;;;12.98;78.90527;934.2186;;;;
2019/05/11 13:03:47;;;;;;;4.7;1.2;;;;;;;12.78;78.98242;934.3002;;;;
2019/05/11 13:06:13;;;;;;;5.4;1.3;;;;;;;12.67;80.42188;934.3423;;;;
2019/05/11 13:08:38;;;;;;;5.5;1.4;;;;;;;12.78;80.75195;934.3337;;;;
2019/05/11 13:11:05;;;;;;;2.6;1.4;;;;;;;12.71;80.88574;934.402;;;;
2019/05/11 13:13:31;;;;;;;3.5;1.6;;;;;;;12.39;82.07813;934.5938;;;;
2019/05/11 13:15:57;;;;;;;3.9;1.5;;;;;;;11.95;84.61621;934.6661;;;;
2019/05/11 13:18:22;;;;;;;4.9;1.5;;;;;;;12.48;82.40527;934.7542;;;;
2019/05/11 13:20:47;;;;;;;3.8;1.5;;;;;;;12.39;83.4541;934.9083;;;;
2019/05/11 13:23:12;;;;;;;2.1;1.1;;;;;;;12.13;81.87988;934.9573;;;;
2019/05/11 13:25:41;;;;;;;4.1;0.9;;;;;;;12.21;81.88379;934.8425;;;;
2019/05/11 13:28:06;;;;;;;1.9;0.8;;;;;;;12.24;80.13477;934.955;;;;
2019/05/11 13:30:31;;;;;;;3.2;1;;;;;;;12.15;82.14746;934.9813;;;;
2019/05/11 13:32:57;;;;;;;1.6;0.9;;;;;;;12.16;81.14063;935.0012;;;;
2019/05/11 13:35:23;;;;;;;2.2;1.1;;;;;;;12.33;81.21777;935.1624;;;;
2019/05/11 13:37:47;;;;;;;5;1.5;;;;;;;12.29;80.47559;935.2263;;;;
2019/05/11 13:40:16;;;;;;;3.7;1.5;;;;;;;12.61;80.82129;935.3967;;;;
2019/05/11 13:42:43;;;;;;;3.2;1.5;;;;;;;12.68;79.20703;935.5892;;;;
2019/05/11 13:45:08;;;;;;;3.6;2.9;;;;;;;12.61;79.83594;935.5324;;;;
2019/05/11 13:47:33;;;;;;;4.1;1.6;;;;;;;12.31;80.27441;935.5176;;;;
2019/05/11 13:49:59;;;;;;;1.9;0.9;;;;;;;12.38;79.79297;935.6764;;;;
2019/05/11 13:52:25;;;;;;;2.7;1.9;;;;;;;12.22;79.31641;935.881;;;;
2019/05/11 13:54:50;;;;;;;2.5;1.6;;;;;;;11.94;80.49219;935.9731;;;;
2019/05/11 13:57:15;;;;;;;2.6;0.9;;;;;;;11.8;79.31055;935.9871;;;;
2019/05/11 13:59:40;;;;;;;0.9;0.4;;;;;;;11.7;71.42773;935.8782;;;;
2019/05/11 14:02:06;;;;;;;1.4;0.7;;;;;;;11.87;74.13574;935.78;;;;
2019/05/11 14:04:31;;;;;;;0.8;0.4;;;;;;;11.75;70.41602;935.6987;;;;
2019/05/11 14:06:56;;;;;;;1.6;0.7;;;;;;;11.75;70.91992;935.69;;;;
2019/05/11 14:09:21;;;;;;;2.3;1.1;;;;;;;11.72;73.69629;935.7402;;;;
2019/05/11 14:11:48;;;;;;;2.7;1.4;;;;;;;11.63;75.16895;935.7625;;;;
2019/05/11 14:14:13;;;;;;;3.6;2.5;;;;;;;11.34;76.8125;935.7957;;;;
2019/05/11 14:16:40;;;;;;;7.1;5.4;;;;;;;11.52;76.47754;935.9183;;;;